sensor_id;sensor_type;location;lat;lon;timestamp;pressure;altitude;pressure_sealevel;temperature;humidity
65019;BME280;66069;51.164;-114.452;2023-02-20T00:00:56;86707.75;;;17.78;41.69
65019;BME280;66069;51.164;-114.452;2023-02-20T00:03:23;86703.75;;;17.73;41.65
65019;BME280;66069;51.164;-114.452;2023-02-20T00:05:49;86705.97;;;17.75;41.82
65019;BME280;66069;51.164;-114.452;2023-02-20T00:08:15;86699.09;;;17.65;41.59
65019;BME280;66069;51.164;-114.452;2023-02-20T00:10:42;86718.81;;;17.77;41.53
65019;BME280;66069;51.164;-114.452;2023-02-20T00:13:08;86720.59;;;17.80;41.58
65019;BME280;66069;51.164;-114.452;2023-02-20T00:15:35;86714.88;;;17.68;41.49
65019;BME280;66069;51.164;-114.452;2023-02-20T00:18:01;86735.56;;;17.73;41.55
65019;BME280;66069;51.164;-114.452;2023-02-20T00:20:27;86737.13;;;17.71;41.53
65019;BME280;66069;51.164;-114.452;2023-02-20T00:22:55;86738.94;;;17.74;41.56
65019;BME280;66069;51.164;-114.452;2023-02-20T00:25:21;86731.63;;;17.65;41.58
65019;BME280;66069;51.164;-114.452;2023-02-20T00:27:48;86756.84;;;17.83;41.66
65019;BME280;66069;51.164;-114.452;2023-02-20T00:30:17;86751.97;;;17.68;41.56
65019;BME280;66069;51.164;-114.452;2023-02-20T00:32:45;86762.13;;;17.70;41.53
65019;BME280;66069;51.164;-114.452;2023-02-20T00:35:12;86760.34;;;17.67;41.47
65019;BME280;66069;51.164;-114.452;2023-02-20T00:37:39;86776.06;;;17.74;41.43
65019;BME280;66069;51.164;-114.452;2023-02-20T00:40:06;86771.59;;;17.71;41.38
65019;BME280;66069;51.164;-114.452;2023-02-20T00:42:32;86771.41;;;17.65;41.25
65019;BME280;66069;51.164;-114.452;2023-02-20T00:44:59;86791.53;;;17.75;41.39
65019;BME280;66069;51.164;-114.452;2023-02-20T00:47:25;86776.25;;;17.67;41.38
65019;BME280;66069;51.164;-114.452;2023-02-20T00:49:52;86784.66;;;17.65;41.29
65019;BME280;66069;51.164;-114.452;2023-02-20T00:52:18;86776.94;;;17.58;41.14
65019;BME280;66069;51.164;-114.452;2023-02-20T00:54:44;86783.56;;;17.63;41.20
65019;BME280;66069;51.164;-114.452;2023-02-20T00:57:11;86806.06;;;17.71;41.31
65019;BME280;66069;51.164;-114.452;2023-02-20T00:59:37;86797.47;;;17.67;41.39
65019;BME280;66069;51.164;-114.452;2023-02-20T01:02:03;86808.38;;;17.69;41.23
65019;BME280;66069;51.164;-114.452;2023-02-20T01:04:29;86811.47;;;17.67;41.30
65019;BME280;66069;51.164;-114.452;2023-02-20T01:06:56;86796.97;;;17.59;41.09
65019;BME280;66069;51.164;-114.452;2023-02-20T01:09:22;86828.34;;;17.73;41.28
65019;BME280;66069;51.164;-114.452;2023-02-20T01:11:48;86819.88;;;17.53;41.42
65019;BME280;66069;51.164;-114.452;2023-02-20T01:14:15;86822.94;;;17.64;41.21
65019;BME280;66069;51.164;-114.452;2023-02-20T01:16:45;86833.53;;;17.64;41.48
65019;BME280;66069;51.164;-114.452;2023-02-20T01:19:12;86832.59;;;17.58;41.32
65019;BME280;66069;51.164;-114.452;2023-02-20T01:21:39;86830.47;;;17.53;41.32
65019;BME280;66069;51.164;-114.452;2023-02-20T01:24:05;86838.28;;;17.57;41.42
65019;BME280;66069;51.164;-114.452;2023-02-20T01:26:32;86867.22;;;17.64;41.49
65019;BME280;66069;51.164;-114.452;2023-02-20T01:28:58;86857.06;;;17.62;41.56
65019;BME280;66069;51.164;-114.452;2023-02-20T01:31:24;86861.81;;;17.67;41.76
65019;BME280;66069;51.164;-114.452;2023-02-20T01:33:50;86860.88;;;17.61;41.88
65019;BME280;66069;51.164;-114.452;2023-02-20T01:36:17;86863.09;;;17.63;41.88
65019;BME280;66069;51.164;-114.452;2023-02-20T01:38:43;86856.63;;;17.64;41.87
65019;BME280;66069;51.164;-114.452;2023-02-20T01:41:10;86877.97;;;17.73;41.81
65019;BME280;66069;51.164;-114.452;2023-02-20T01:43:37;86867.22;;;17.64;41.82
65019;BME280;66069;51.164;-114.452;2023-02-20T01:48:54;86884.00;;;17.73;41.72
65019;BME280;66069;51.164;-114.452;2023-02-20T01:51:24;86887.84;;;17.72;41.86
65019;BME280;66069;51.164;-114.452;2023-02-20T01:53:52;86888.25;;;17.71;41.81
65019;BME280;66069;51.164;-114.452;2023-02-20T01:56:18;86884.19;;;17.66;41.94
65019;BME280;66069;51.164;-114.452;2023-02-20T01:58:47;86887.69;;;17.63;41.84
65019;BME280;66069;51.164;-114.452;2023-02-20T02:01:14;86901.16;;;17.69;41.95
65019;BME280;66069;51.164;-114.452;2023-02-20T02:03:44;86901.81;;;17.73;41.85
65019;BME280;66069;51.164;-114.452;2023-02-20T02:06:18;86903.81;;;17.69;41.98
65019;BME280;66069;51.164;-114.452;2023-02-20T02:08:45;86904.75;;;17.62;41.93
65019;BME280;66069;51.164;-114.452;2023-02-20T02:11:22;86904.44;;;17.60;41.95
65019;BME280;66069;51.164;-114.452;2023-02-20T02:13:49;86925.44;;;17.67;42.00
65019;BME280;66069;51.164;-114.452;2023-02-20T02:33:13;86946.47;;;17.74;42.27
65019;BME280;66069;51.164;-114.452;2023-02-20T02:41:11;86951.03;;;17.74;42.39
65019;BME280;66069;51.164;-114.452;2023-02-20T02:44:06;86956.31;;;17.74;42.36
65019;BME280;66069;51.164;-114.452;2023-02-20T02:46:45;86938.16;;;17.60;42.43
65019;BME280;66069;51.164;-114.452;2023-02-20T02:52:02;86940.19;;;17.68;42.65
65019;BME280;66069;51.164;-114.452;2023-02-20T02:54:29;86934.34;;;17.61;42.49
65019;BME280;66069;51.164;-114.452;2023-02-20T02:57:24;86954.94;;;17.82;42.65
65019;BME280;66069;51.164;-114.452;2023-02-20T02:59:59;86940.31;;;17.78;42.59
65019;BME280;66069;51.164;-114.452;2023-02-20T03:02:32;86949.03;;;17.78;42.82
65019;BME280;66069;51.164;-114.452;2023-02-20T03:05:01;86958.66;;;17.85;42.80
65019;BME280;66069;51.164;-114.452;2023-02-20T03:07:30;86957.28;;;17.80;42.66
65019;BME280;66069;51.164;-114.452;2023-02-20T03:10:04;86943.91;;;17.71;42.82
65019;BME280;66069;51.164;-114.452;2023-02-20T03:12:33;86935.94;;;17.71;42.70
65019;BME280;66069;51.164;-114.452;2023-02-20T03:15:10;86933.94;;;17.75;42.78
65019;BME280;66069;51.164;-114.452;2023-02-20T03:18:24;86958.03;;;17.93;42.75
65019;BME280;66069;51.164;-114.452;2023-02-20T03:20:58;86942.13;;;17.81;42.96
65019;BME280;66069;51.164;-114.452;2023-02-20T03:23:35;86934.81;;;17.72;42.92
65019;BME280;66069;51.164;-114.452;2023-02-20T03:26:09;86939.91;;;17.79;42.88
65019;BME280;66069;51.164;-114.452;2023-02-20T03:28:49;86933.84;;;17.79;43.17
65019;BME280;66069;51.164;-114.452;2023-02-20T03:31:30;86939.16;;;17.79;43.04
65019;BME280;66069;51.164;-114.452;2023-02-20T03:37:18;86954.19;;;17.82;43.11
65019;BME280;66069;51.164;-114.452;2023-02-20T03:40:10;86949.63;;;17.82;43.00
65019;BME280;66069;51.164;-114.452;2023-02-20T03:43:00;86940.72;;;17.76;43.26
65019;BME280;66069;51.164;-114.452;2023-02-20T03:45:46;86950.50;;;17.92;43.15
65019;BME280;66069;51.164;-114.452;2023-02-20T03:48:29;86952.09;;;17.89;43.21
65019;BME280;66069;51.164;-114.452;2023-02-20T03:50:57;86944.53;;;17.88;43.53
65019;BME280;66069;51.164;-114.452;2023-02-20T03:53:43;86969.06;;;18.05;43.41
65019;BME280;66069;51.164;-114.452;2023-02-20T03:56:17;86969.16;;;18.01;43.42
65019;BME280;66069;51.164;-114.452;2023-02-20T03:58:51;86977.00;;;18.05;43.56
65019;BME280;66069;51.164;-114.452;2023-02-20T04:01:22;86972.66;;;17.98;43.44
65019;BME280;66069;51.164;-114.452;2023-02-20T04:03:51;86995.34;;;18.12;43.42
65019;BME280;66069;51.164;-114.452;2023-02-20T04:06:21;86973.50;;;17.95;43.48
65019;BME280;66069;51.164;-114.452;2023-02-20T04:09:04;87002.34;;;18.18;43.33
65019;BME280;66069;51.164;-114.452;2023-02-20T04:11:39;86985.63;;;18.09;43.47
65019;BME280;66069;51.164;-114.452;2023-02-20T04:14:07;86975.00;;;18.09;43.53
65019;BME280;66069;51.164;-114.452;2023-02-20T04:16:40;86967.28;;;18.01;43.57
65019;BME280;66069;51.164;-114.452;2023-02-20T04:19:08;86997.91;;;18.28;43.59
65019;BME280;66069;51.164;-114.452;2023-02-20T04:21:39;86976.25;;;18.17;43.71
65019;BME280;66069;51.164;-114.452;2023-02-20T04:24:13;86994.41;;;18.18;44.07
65019;BME280;66069;51.164;-114.452;2023-02-20T04:26:40;86994.75;;;18.08;44.17
65019;BME280;66069;51.164;-114.452;2023-02-20T04:29:07;86965.38;;;17.77;44.35
65019;BME280;66069;51.164;-114.452;2023-02-20T04:31:34;87003.63;;;18.01;44.42
65019;BME280;66069;51.164;-114.452;2023-02-20T04:34:00;86969.59;;;17.74;44.46
65019;BME280;66069;51.164;-114.452;2023-02-20T04:36:26;87006.72;;;17.99;44.47
65019;BME280;66069;51.164;-114.452;2023-02-20T04:38:53;87007.88;;;17.98;44.65
65019;BME280;66069;51.164;-114.452;2023-02-20T04:41:19;87014.06;;;17.95;44.62
65019;BME280;66069;51.164;-114.452;2023-02-20T04:43:45;87004.78;;;17.87;44.66
65019;BME280;66069;51.164;-114.452;2023-02-20T04:46:12;87020.41;;;17.85;44.64
65019;BME280;66069;51.164;-114.452;2023-02-20T04:48:38;87021.88;;;17.86;45.07
65019;BME280;66069;51.164;-114.452;2023-02-20T04:51:05;87020.41;;;17.85;44.95
65019;BME280;66069;51.164;-114.452;2023-02-20T04:53:31;87038.22;;;17.85;44.75
65019;BME280;66069;51.164;-114.452;2023-02-20T04:55:57;87026.00;;;17.87;44.77
65019;BME280;66069;51.164;-114.452;2023-02-20T04:58:24;87050.31;;;17.86;44.61
65019;BME280;66069;51.164;-114.452;2023-02-20T05:00:50;87057.84;;;17.87;44.69
65019;BME280;66069;51.164;-114.452;2023-02-20T05:03:16;87033.94;;;17.74;44.62
65019;BME280;66069;51.164;-114.452;2023-02-20T05:05:43;87035.78;;;17.78;44.85
65019;BME280;66069;51.164;-114.452;2023-02-20T05:08:09;87047.75;;;17.82;44.77
65019;BME280;66069;51.164;-114.452;2023-02-20T05:10:35;87042.00;;;17.71;44.68
65019;BME280;66069;51.164;-114.452;2023-02-20T05:13:03;87037.84;;;17.70;44.79
65019;BME280;66069;51.164;-114.452;2023-02-20T05:15:30;87034.13;;;17.67;44.76
65019;BME280;66069;51.164;-114.452;2023-02-20T05:17:57;87043.13;;;17.70;44.52
65019;BME280;66069;51.164;-114.452;2023-02-20T05:20:23;87032.50;;;17.57;44.58
65019;BME280;66069;51.164;-114.452;2023-02-20T05:23:09;87057.16;;;17.70;44.63
65019;BME280;66069;51.164;-114.452;2023-02-20T05:25:36;87054.59;;;17.67;44.79
65019;BME280;66069;51.164;-114.452;2023-02-20T05:28:02;87078.72;;;17.72;44.61
65019;BME280;66069;51.164;-114.452;2023-02-20T05:30:28;87055.09;;;17.62;44.59
65019;BME280;66069;51.164;-114.452;2023-02-20T05:32:55;87071.97;;;17.68;44.52
65019;BME280;66069;51.164;-114.452;2023-02-20T05:35:21;87055.97;;;17.59;44.59
65019;BME280;66069;51.164;-114.452;2023-02-20T05:37:47;87058.19;;;17.60;44.53
65019;BME280;66069;51.164;-114.452;2023-02-20T05:40:13;87060.91;;;17.57;44.67
65019;BME280;66069;51.164;-114.452;2023-02-20T05:42:40;87058.94;;;17.61;44.65
65019;BME280;66069;51.164;-114.452;2023-02-20T05:45:07;87060.91;;;17.57;44.67
65019;BME280;66069;51.164;-114.452;2023-02-20T05:47:36;87057.31;;;17.50;44.53
65019;BME280;66069;51.164;-114.452;2023-02-20T05:50:03;87076.63;;;17.64;44.52
65019;BME280;66069;51.164;-114.452;2023-02-20T05:52:30;87049.78;;;17.49;44.49
65019;BME280;66069;51.164;-114.452;2023-02-20T05:54:56;87049.47;;;17.47;44.53
65019;BME280;66069;51.164;-114.452;2023-02-20T05:57:22;87052.75;;;17.51;44.33
65019;BME280;66069;51.164;-114.452;2023-02-20T05:59:49;87071.28;;;17.51;44.42
65019;BME280;66069;51.164;-114.452;2023-02-20T06:02:15;87069.69;;;17.41;44.45
65019;BME280;66069;51.164;-114.452;2023-02-20T06:04:41;87069.69;;;17.41;44.45
65019;BME280;66069;51.164;-114.452;2023-02-20T06:07:08;87092.59;;;17.47;44.58
65019;BME280;66069;51.164;-114.452;2023-02-20T06:09:43;87082.50;;;17.42;44.56
65019;BME280;66069;51.164;-114.452;2023-02-20T06:12:12;87102.69;;;17.53;44.52
65019;BME280;66069;51.164;-114.452;2023-02-20T06:14:39;87068.59;;;17.38;44.62
65019;BME280;66069;51.164;-114.452;2023-02-20T06:17:05;87083.44;;;17.36;44.31
65019;BME280;66069;51.164;-114.452;2023-02-20T06:19:32;87083.88;;;17.34;44.40
65019;BME280;66069;51.164;-114.452;2023-02-20T06:21:58;87087.25;;;17.35;44.42
65019;BME280;66069;51.164;-114.452;2023-02-20T06:24:25;87088.09;;;17.32;44.33
65019;BME280;66069;51.164;-114.452;2023-02-20T06:26:51;87094.88;;;17.33;44.34
65019;BME280;66069;51.164;-114.452;2023-02-20T06:29:18;87108.69;;;17.40;44.43
65019;BME280;66069;51.164;-114.452;2023-02-20T06:31:45;87093.81;;;17.30;44.37
65019;BME280;66069;51.164;-114.452;2023-02-20T06:34:13;87119.81;;;17.35;44.40
65019;BME280;66069;51.164;-114.452;2023-02-20T06:36:40;87123.28;;;17.32;44.15
65019;BME280;66069;51.164;-114.452;2023-02-20T06:39:08;87098.16;;;17.08;44.36
65019;BME280;66069;51.164;-114.452;2023-02-20T06:41:35;87120.16;;;17.21;44.17
65019;BME280;66069;51.164;-114.452;2023-02-20T06:44:02;87128.13;;;17.21;44.32
65019;BME280;66069;51.164;-114.452;2023-02-20T06:46:29;87122.41;;;17.22;44.21
65019;BME280;66069;51.164;-114.452;2023-02-20T06:48:56;87122.97;;;17.14;44.20
65019;BME280;66069;51.164;-114.452;2023-02-20T06:51:28;87147.28;;;17.25;44.18
65019;BME280;66069;51.164;-114.452;2023-02-20T06:53:55;87142.41;;;17.23;44.38
65019;BME280;66069;51.164;-114.452;2023-02-20T06:56:25;87136.13;;;17.17;44.32
65019;BME280;66069;51.164;-114.452;2023-02-20T06:58:52;87138.78;;;17.17;44.23
65019;BME280;66069;51.164;-114.452;2023-02-20T07:01:21;87175.19;;;17.30;44.31
65019;BME280;66069;51.164;-114.452;2023-02-20T07:03:48;87172.97;;;17.28;44.27
65019;BME280;66069;51.164;-114.452;2023-02-20T07:06:16;87171.75;;;17.16;44.40
65019;BME280;66069;51.164;-114.452;2023-02-20T07:08:43;87170.25;;;17.15;44.03
65019;BME280;66069;51.164;-114.452;2023-02-20T07:11:10;87142.03;;;16.92;44.23
65019;BME280;66069;51.164;-114.452;2023-02-20T07:13:36;87160.47;;;17.12;44.09
65019;BME280;66069;51.164;-114.452;2023-02-20T07:16:03;87171.50;;;17.11;44.12
65019;BME280;66069;51.164;-114.452;2023-02-20T07:18:29;87143.19;;;16.91;44.09
65019;BME280;66069;51.164;-114.452;2023-02-20T07:20:56;87136.25;;;16.81;44.13
65019;BME280;66069;51.164;-114.452;2023-02-20T07:23:22;87162.00;;;16.97;44.24
65019;BME280;66069;51.164;-114.452;2023-02-20T07:25:49;87154.84;;;16.94;44.10
65019;BME280;66069;51.164;-114.452;2023-02-20T07:28:16;87172.16;;;16.99;44.25
65019;BME280;66069;51.164;-114.452;2023-02-20T07:30:46;87173.81;;;16.92;44.00
65019;BME280;66069;51.164;-114.452;2023-02-20T07:33:15;87164.38;;;16.91;44.14
65019;BME280;66069;51.164;-114.452;2023-02-20T07:35:41;87201.38;;;17.11;44.29
65019;BME280;66069;51.164;-114.452;2023-02-20T07:38:08;87180.16;;;16.95;44.13
65019;BME280;66069;51.164;-114.452;2023-02-20T07:40:34;87176.72;;;16.98;44.24
65019;BME280;66069;51.164;-114.452;2023-02-20T07:43:01;87168.75;;;16.98;44.01
65019;BME280;66069;51.164;-114.452;2023-02-20T07:45:27;87184.47;;;17.05;44.20
65019;BME280;66069;51.164;-114.452;2023-02-20T07:47:53;87169.94;;;16.97;44.08
65019;BME280;66069;51.164;-114.452;2023-02-20T07:50:20;87175.97;;;16.98;43.97
65019;BME280;66069;51.164;-114.452;2023-02-20T07:52:46;87181.16;;;17.01;44.34
65019;BME280;66069;51.164;-114.452;2023-02-20T07:55:14;87182.00;;;16.98;44.10
65019;BME280;66069;51.164;-114.452;2023-02-20T07:57:42;87172.88;;;16.83;44.03
65019;BME280;66069;51.164;-114.452;2023-02-20T08:00:16;87183.34;;;16.90;44.12
65019;BME280;66069;51.164;-114.452;2023-02-20T08:02:43;87178.94;;;16.83;43.92
65019;BME280;66069;51.164;-114.452;2023-02-20T08:05:10;87172.56;;;16.81;44.27
65019;BME280;66069;51.164;-114.452;2023-02-20T08:07:36;87178.53;;;16.85;44.14
65019;BME280;66069;51.164;-114.452;2023-02-20T08:10:04;87201.78;;;16.93;44.31
65019;BME280;66069;51.164;-114.452;2023-02-20T08:12:30;87205.00;;;16.85;44.03
65019;BME280;66069;51.164;-114.452;2023-02-20T08:14:57;87201.25;;;16.82;43.97
65019;BME280;66069;51.164;-114.452;2023-02-20T08:17:23;87200.63;;;16.78;44.13
65019;BME280;66069;51.164;-114.452;2023-02-20T08:19:49;87233.56;;;16.93;44.35
65019;BME280;66069;51.164;-114.452;2023-02-20T08:22:16;87191.72;;;16.68;44.14
65019;BME280;66069;51.164;-114.452;2023-02-20T08:24:42;87213.13;;;16.78;44.12
65019;BME280;66069;51.164;-114.452;2023-02-20T08:27:11;87217.66;;;16.77;44.16
65019;BME280;66069;51.164;-114.452;2023-02-20T08:29:37;87229.31;;;16.80;44.09
65019;BME280;66069;51.164;-114.452;2023-02-20T08:32:04;87234.28;;;16.78;44.11
65019;BME280;66069;51.164;-114.452;2023-02-20T08:34:30;87217.78;;;16.70;44.08
65019;BME280;66069;51.164;-114.452;2023-02-20T08:36:56;87235.69;;;16.82;43.96
65019;BME280;66069;51.164;-114.452;2023-02-20T08:39:22;87233.13;;;16.79;43.97
65019;BME280;66069;51.164;-114.452;2023-02-20T08:41:49;87215.63;;;16.65;43.98
65019;BME280;66069;51.164;-114.452;2023-02-20T08:44:15;87244.88;;;16.78;44.05
65019;BME280;66069;51.164;-114.452;2023-02-20T08:46:47;87228.44;;;16.66;44.07
65019;BME280;66069;51.164;-114.452;2023-02-20T08:49:14;87237.88;;;16.67;44.01
65019;BME280;66069;51.164;-114.452;2023-02-20T08:51:46;87226.59;;;16.63;44.09
65019;BME280;66069;51.164;-114.452;2023-02-20T08:54:14;87220.88;;;16.49;44.02
65019;BME280;66069;51.164;-114.452;2023-02-20T08:56:41;87249.25;;;16.64;43.86
65019;BME280;66069;51.164;-114.452;2023-02-20T08:59:08;87249.25;;;16.64;44.14
65019;BME280;66069;51.164;-114.452;2023-02-20T09:01:34;87259.09;;;16.64;43.94
65019;BME280;66069;51.164;-114.452;2023-02-20T09:04:04;87259.09;;;16.64;44.00
65019;BME280;66069;51.164;-114.452;2023-02-20T09:06:30;87243.38;;;16.57;44.08
65019;BME280;66069;51.164;-114.452;2023-02-20T09:08:56;87241.91;;;16.56;43.99
65019;BME280;66069;51.164;-114.452;2023-02-20T09:11:23;87258.78;;;16.62;44.01
65019;BME280;66069;51.164;-114.452;2023-02-20T09:13:49;87247.28;;;16.52;44.01
65019;BME280;66069;51.164;-114.452;2023-02-20T09:16:19;87254.66;;;16.61;44.10
65019;BME280;66069;51.164;-114.452;2023-02-20T09:18:46;87271.59;;;16.63;44.28
65019;BME280;66069;51.164;-114.452;2023-02-20T09:21:15;87242.19;;;16.41;43.93
65019;BME280;66069;51.164;-114.452;2023-02-20T09:23:41;87248.56;;;16.44;43.97
65019;BME280;66069;51.164;-114.452;2023-02-20T09:26:07;87261.03;;;16.43;44.06
65019;BME280;66069;51.164;-114.452;2023-02-20T09:28:34;87268.91;;;16.47;43.97
65019;BME280;66069;51.164;-114.452;2023-02-20T09:31:04;87250.28;;;16.34;43.87
65019;BME280;66069;51.164;-114.452;2023-02-20T09:33:30;87291.00;;;16.57;43.86
65019;BME280;66069;51.164;-114.452;2023-02-20T09:35:56;87291.75;;;16.57;44.07
65019;BME280;66069;51.164;-114.452;2023-02-20T09:38:23;87289.69;;;16.49;43.82
65019;BME280;66069;51.164;-114.452;2023-02-20T09:40:56;87281.53;;;16.39;44.01
65019;BME280;66069;51.164;-114.452;2023-02-20T09:46:16;87313.06;;;16.50;43.97
65019;BME280;66069;51.164;-114.452;2023-02-20T09:48:47;87309.34;;;16.48;43.91
65019;BME280;66069;51.164;-114.452;2023-02-20T09:51:23;87313.97;;;16.43;43.90
65019;BME280;66069;51.164;-114.452;2023-02-20T09:54:13;87320.59;;;16.52;43.98
65019;BME280;66069;51.164;-114.452;2023-02-20T09:56:41;87330.44;;;16.51;43.88
65019;BME280;66069;51.164;-114.452;2023-02-20T10:01:42;87309.81;;;16.23;43.99
65019;BME280;66069;51.164;-114.452;2023-02-20T10:04:14;87321.03;;;16.30;43.99
65019;BME280;66069;51.164;-114.452;2023-02-20T10:06:43;87334.19;;;16.34;43.97
65019;BME280;66069;51.164;-114.452;2023-02-20T10:09:12;87345.44;;;16.38;43.84
65019;BME280;66069;51.164;-114.452;2023-02-20T10:12:21;87342.50;;;16.32;43.78
65019;BME280;66069;51.164;-114.452;2023-02-20T10:17:47;87353.31;;;16.41;43.83
65019;BME280;66069;51.164;-114.452;2023-02-20T10:23:41;87337.50;;;16.18;44.06
65019;BME280;66069;51.164;-114.452;2023-02-20T10:26:07;87357.06;;;16.21;43.95
65019;BME280;66069;51.164;-114.452;2023-02-20T10:28:36;87352.16;;;16.23;43.86
65019;BME280;66069;51.164;-114.452;2023-02-20T10:33:51;87344.84;;;16.07;43.79
65019;BME280;66069;51.164;-114.452;2023-02-20T10:36:33;87392.03;;;16.32;43.88
65019;BME280;66069;51.164;-114.452;2023-02-20T10:39:14;87403.72;;;16.34;43.88
65019;BME280;66069;51.164;-114.452;2023-02-20T10:44:29;87411.38;;;16.29;43.77
65019;BME280;66069;51.164;-114.452;2023-02-20T10:47:06;87404.75;;;16.17;43.99
65019;BME280;66069;51.164;-114.452;2023-02-20T10:52:51;87420.91;;;16.23;43.89
65019;BME280;66069;51.164;-114.452;2023-02-20T10:55:25;87440.88;;;16.27;43.80
65019;BME280;66069;51.164;-114.452;2023-02-20T10:58:09;87444.31;;;16.24;44.07
65019;BME280;66069;51.164;-114.452;2023-02-20T11:00:53;87457.13;;;16.26;43.83
65019;BME280;66069;51.164;-114.452;2023-02-20T11:05:54;87453.44;;;16.20;43.99
65019;BME280;66069;51.164;-114.452;2023-02-20T11:08:22;87438.56;;;16.06;43.90
65019;BME280;66069;51.164;-114.452;2023-02-20T11:10:52;87436.97;;;16.12;43.96
65019;BME280;66069;51.164;-114.452;2023-02-20T11:13:23;87460.31;;;16.17;43.88
65019;BME280;66069;51.164;-114.452;2023-02-20T11:15:53;87451.03;;;16.05;43.85
65019;BME280;66069;51.164;-114.452;2023-02-20T11:18:32;87458.81;;;16.16;44.01
65019;BME280;66069;51.164;-114.452;2023-02-20T11:21:00;87459.75;;;16.02;43.90
65019;BME280;66069;51.164;-114.452;2023-02-20T11:28:40;87481.69;;;16.03;43.91
65019;BME280;66069;51.164;-114.452;2023-02-20T11:31:07;87479.44;;;16.01;43.87
65019;BME280;66069;51.164;-114.452;2023-02-20T11:33:36;87495.53;;;16.10;43.79
65019;BME280;66069;51.164;-114.452;2023-02-20T11:36:18;87489.97;;;16.05;43.98
65019;BME280;66069;51.164;-114.452;2023-02-20T11:38:48;87475.00;;;15.95;43.88
65019;BME280;66069;51.164;-114.452;2023-02-20T11:41:28;87503.47;;;16.10;43.83
65019;BME280;66069;51.164;-114.452;2023-02-20T11:44:17;87487.75;;;16.00;43.77
65019;BME280;66069;51.164;-114.452;2023-02-20T11:46:44;87504.28;;;16.07;43.90
65019;BME280;66069;51.164;-114.452;2023-02-20T11:49:28;87505.53;;;15.99;43.92
65019;BME280;66069;51.164;-114.452;2023-02-20T11:52:19;87505.53;;;15.99;43.82
65019;BME280;66069;51.164;-114.452;2023-02-20T11:54:47;87503.78;;;15.89;43.71
65019;BME280;66069;51.164;-114.452;2023-02-20T11:57:32;87508.31;;;15.88;43.77
65019;BME280;66069;51.164;-114.452;2023-02-20T12:00:21;87530.47;;;15.98;43.73
65019;BME280;66069;51.164;-114.452;2023-02-20T12:05:43;87543.63;;;16.02;43.70
65019;BME280;66069;51.164;-114.452;2023-02-20T12:08:35;87515.94;;;15.83;43.68
65019;BME280;66069;51.164;-114.452;2023-02-20T12:11:19;87547.09;;;15.99;43.66
65019;BME280;66069;51.164;-114.452;2023-02-20T12:13:48;87544.56;;;15.92;43.87
65019;BME280;66069;51.164;-114.452;2023-02-20T12:19:16;87551.28;;;15.96;43.76
65019;BME280;66069;51.164;-114.452;2023-02-20T12:29:55;87552.47;;;15.92;43.71
65019;BME280;66069;51.164;-114.452;2023-02-20T12:43:03;87563.50;;;15.86;43.90
65019;BME280;66069;51.164;-114.452;2023-02-20T12:51:44;87534.81;;;15.54;43.82
65019;BME280;66069;51.164;-114.452;2023-02-20T12:59:34;87572.59;;;15.85;43.84
65019;BME280;66069;51.164;-114.452;2023-02-20T13:02:19;87563.69;;;15.72;44.03
65019;BME280;66069;51.164;-114.452;2023-02-20T13:04:59;87576.41;;;15.81;43.89
65019;BME280;66069;51.164;-114.452;2023-02-20T13:07:40;87589.50;;;15.92;44.22
65019;BME280;66069;51.164;-114.452;2023-02-20T13:12:43;87565.50;;;15.79;44.23
65019;BME280;66069;51.164;-114.452;2023-02-20T13:20:52;87585.28;;;15.94;44.85
65019;BME280;66069;51.164;-114.452;2023-02-20T13:25:50;87627.28;;;16.19;45.12
65019;BME280;66069;51.164;-114.452;2023-02-20T13:33:49;87616.25;;;16.24;45.23
65019;BME280;66069;51.164;-114.452;2023-02-20T13:36:36;87636.47;;;16.38;45.44
65019;BME280;66069;51.164;-114.452;2023-02-20T13:47:03;87618.59;;;16.46;45.79
65019;BME280;66069;51.164;-114.452;2023-02-20T13:54:56;87666.25;;;16.73;45.97
65019;BME280;66069;51.164;-114.452;2023-02-20T13:57:22;87666.69;;;16.71;46.08
65019;BME280;66069;51.164;-114.452;2023-02-20T13:59:51;87651.59;;;16.64;45.98
65019;BME280;66069;51.164;-114.452;2023-02-20T14:02:21;87674.81;;;16.84;46.24
65019;BME280;66069;51.164;-114.452;2023-02-20T14:04:58;87650.31;;;16.76;46.20
65019;BME280;66069;51.164;-114.452;2023-02-20T14:07:30;87652.03;;;16.90;46.30
65019;BME280;66069;51.164;-114.452;2023-02-20T14:12:32;87663.59;;;17.00;46.08
65019;BME280;66069;51.164;-114.452;2023-02-20T14:15:03;87653.84;;;16.93;45.95
65019;BME280;66069;51.164;-114.452;2023-02-20T14:17:29;87667.22;;;17.09;46.17
65019;BME280;66069;51.164;-114.452;2023-02-20T14:19:59;87666.13;;;17.07;46.21
65019;BME280;66069;51.164;-114.452;2023-02-20T14:22:32;87676.97;;;17.16;46.17
65019;BME280;66069;51.164;-114.452;2023-02-20T14:27:39;87654.34;;;17.08;46.08
65019;BME280;66069;51.164;-114.452;2023-02-20T14:30:13;87687.66;;;17.32;45.98
65019;BME280;66069;51.164;-114.452;2023-02-20T14:32:46;87676.78;;;17.27;46.26
65019;BME280;66069;51.164;-114.452;2023-02-20T14:36:12;87675.06;;;17.40;46.18
65019;BME280;66069;51.164;-114.452;2023-02-20T14:41:29;87669.47;;;17.34;45.97
65019;BME280;66069;51.164;-114.452;2023-02-20T14:44:01;87678.78;;;17.42;46.00
65019;BME280;66069;51.164;-114.452;2023-02-20T14:46:31;87658.16;;;17.30;45.98
65019;BME280;66069;51.164;-114.452;2023-02-20T14:49:03;87711.09;;;17.57;46.03
65019;BME280;66069;51.164;-114.452;2023-02-20T14:51:30;87687.03;;;17.48;46.12
65019;BME280;66069;51.164;-114.452;2023-02-20T14:54:15;87702.75;;;17.59;46.07
65019;BME280;66069;51.164;-114.452;2023-02-20T14:56:42;87693.34;;;17.54;45.84
65019;BME280;66069;51.164;-114.452;2023-02-20T14:59:45;87712.81;;;17.67;45.80